createdAt,value
2022-11-26T00:03:52.578Z,49.78
2022-11-26T00:09:20.987Z,50.00
2022-11-26T00:14:42.985Z,50.08
2022-11-26T00:20:05.305Z,50.10
2022-11-26T00:25:33.256Z,49.32
2022-11-26T00:30:57.963Z,49.17
2022-11-26T00:36:27.527Z,49.33
2022-11-26T00:41:51.197Z,49.50
2022-11-26T00:47:12.943Z,49.65
2022-11-26T00:52:35.021Z,49.43
2022-11-26T00:57:57.743Z,49.63
2022-11-26T01:03:19.780Z,49.92
2022-11-26T01:08:41.630Z,49.63
2022-11-26T01:14:03.356Z,49.43
2022-11-26T01:19:25.106Z,49.81
2022-11-26T01:24:47.415Z,49.84
2022-11-26T01:30:18.982Z,49.92
2022-11-26T01:35:40.669Z,49.81
2022-11-26T01:41:15.805Z,49.60
2022-11-26T01:46:39.044Z,49.57
2022-11-26T01:52:21.380Z,49.67
2022-11-26T01:57:44.381Z,49.71
2022-11-26T02:03:07.162Z,50.01
2022-11-26T02:08:31.653Z,49.79
2022-11-26T02:13:56.914Z,49.97
2022-11-26T02:19:49.482Z,49.72
2022-11-26T02:25:29.961Z,49.73
2022-11-26T02:31:18.237Z,49.54
2022-11-26T02:36:50.177Z,49.83
2022-11-26T02:42:30.423Z,49.50
2022-11-26T02:47:55.910Z,50.01
2022-11-26T02:53:20.927Z,49.50
2022-11-26T02:58:43.480Z,49.71
2022-11-26T03:04:15.661Z,49.87
2022-11-26T03:09:53.971Z,49.59
2022-11-26T03:15:15.680Z,49.56
2022-11-26T03:20:37.318Z,49.91
2022-11-26T03:25:59.151Z,49.66
2022-11-26T03:31:20.908Z,49.53
2022-11-26T03:36:43.346Z,49.65
2022-11-26T03:42:05.410Z,49.77
2022-11-26T03:47:27.582Z,49.97
2022-11-26T03:52:49.260Z,49.80
2022-11-26T03:58:10.987Z,49.63
2022-11-26T04:03:32.758Z,49.66
2022-11-26T04:08:54.654Z,49.48
2022-11-26T04:14:16.443Z,49.83
2022-11-26T04:19:38.177Z,49.50
2022-11-26T04:24:59.856Z,49.96
2022-11-26T04:30:21.558Z,49.54
2022-11-26T04:35:43.789Z,49.75
2022-11-26T04:41:05.656Z,49.72
2022-11-26T04:46:27.296Z,49.31
2022-11-26T04:51:48.948Z,49.47
2022-11-26T04:57:10.632Z,49.65
2022-11-26T05:02:32.315Z,49.50
2022-11-26T05:07:54.142Z,49.69
2022-11-26T05:13:15.933Z,49.50
2022-11-26T05:18:37.634Z,49.69
2022-11-26T05:23:59.301Z,49.45
2022-11-26T05:29:20.947Z,49.47
2022-11-26T05:34:42.784Z,49.57
2022-11-26T05:40:05.328Z,49.24
2022-11-26T05:45:27.102Z,49.17
2022-11-26T05:50:53.120Z,49.57
2022-11-26T05:56:16.302Z,49.50
2022-11-26T06:01:38.127Z,49.15
2022-11-26T06:06:59.791Z,49.13
2022-11-26T06:12:21.533Z,49.53
2022-11-26T06:17:43.320Z,49.38
2022-11-26T06:23:05.400Z,48.94
2022-11-26T06:28:27.162Z,49.23
2022-11-26T06:33:52.791Z,49.39
2022-11-26T06:39:14.360Z,49.17
2022-11-26T06:44:36.927Z,49.38
2022-11-26T06:49:58.812Z,48.75
2022-11-26T06:55:21.335Z,47.75
2022-11-26T07:00:43.034Z,47.45
2022-11-26T07:06:04.942Z,47.31
2022-11-26T07:11:27.079Z,47.06
2022-11-26T07:16:49.030Z,46.95
2022-11-26T07:22:10.667Z,47.22
2022-11-26T07:27:32.354Z,46.95
2022-11-26T07:32:54.020Z,47.42
2022-11-26T07:38:15.688Z,46.95
2022-11-26T07:43:39.320Z,47.23
2022-11-26T07:49:01.014Z,47.28
2022-11-26T07:54:22.698Z,47.40
2022-11-26T07:59:44.356Z,47.28
2022-11-26T08:05:06.646Z,46.79
2022-11-26T08:10:28.325Z,46.98
2022-11-26T08:15:50.001Z,47.08
2022-11-26T08:21:11.766Z,46.82
2022-11-26T08:26:38.425Z,46.66
2022-11-26T08:32:04.555Z,47.05
2022-11-26T08:37:26.378Z,46.93
2022-11-26T08:42:48.132Z,46.66
2022-11-26T08:48:09.832Z,46.41
2022-11-26T08:53:33.522Z,46.07
2022-11-26T08:58:55.269Z,46.06
2022-11-26T09:04:17.070Z,45.73
2022-11-26T09:09:38.992Z,45.49
2022-11-26T09:15:00.692Z,45.54
2022-11-26T09:20:22.450Z,45.52
2022-11-26T09:25:44.119Z,46.07
2022-11-26T09:31:06.293Z,46.09
2022-11-26T09:36:28.138Z,45.99
2022-11-26T09:42:03.292Z,46.58
2022-11-26T09:47:38.400Z,46.35
2022-11-26T09:53:09.196Z,47.00
2022-11-26T09:58:38.960Z,46.64
2022-11-26T10:04:01.001Z,46.73
2022-11-26T10:09:34.748Z,44.85
2022-11-26T10:15:35.403Z,44.99
2022-11-26T10:21:18.233Z,45.11
2022-11-26T10:26:49.940Z,44.99
2022-11-26T10:32:16.250Z,45.15
2022-11-26T10:37:37.928Z,45.10
2022-11-26T10:43:08.660Z,44.39
2022-11-26T10:48:32.944Z,44.88
2022-11-26T10:54:02.353Z,45.10
2022-11-26T10:59:28.887Z,45.18
2022-11-26T11:04:53.834Z,45.63
2022-11-26T11:10:19.259Z,45.59
2022-11-26T11:15:41.812Z,45.98
2022-11-26T11:21:05.199Z,45.60
2022-11-26T11:26:28.496Z,45.75
2022-11-26T11:31:50.435Z,45.87
2022-11-26T11:37:17.223Z,45.98
2022-11-26T11:42:40.776Z,45.87
2022-11-26T11:48:14.671Z,45.88
2022-11-26T11:54:03.379Z,45.95
2022-11-26T11:59:47.969Z,46.47
2022-11-26T12:05:28.230Z,46.23
2022-11-26T12:11:17.631Z,46.12
2022-11-26T12:16:43.803Z,46.05
2022-11-26T12:22:18.790Z,46.12
2022-11-26T12:27:46.939Z,46.11
2022-11-26T12:33:41.498Z,46.27
2022-11-26T12:39:18.409Z,45.87
2022-11-26T12:44:44.036Z,46.17
2022-11-26T12:50:32.685Z,46.14
2022-11-26T12:56:28.349Z,45.71
2022-11-26T13:01:50.892Z,45.86
2022-11-26T13:07:18.391Z,45.84
2022-11-26T13:13:06.598Z,45.71
2022-11-26T13:18:34.740Z,45.62
2022-11-26T13:24:40.937Z,45.69
2022-11-26T13:30:24.195Z,46.02
2022-11-26T13:36:04.010Z,46.23
2022-11-26T13:41:58.653Z,46.09
2022-11-26T13:47:23.614Z,46.52
2022-11-26T13:53:00.052Z,46.21
2022-11-26T13:58:31.102Z,46.29
2022-11-26T14:03:53.035Z,46.65
2022-11-26T14:09:55.024Z,46.22
2022-11-26T14:15:51.679Z,45.61
2022-11-26T14:21:13.865Z,45.68
2022-11-26T14:26:40.001Z,45.32
2022-11-26T14:32:01.828Z,44.99
2022-11-26T14:37:27.147Z,45.19
2022-11-26T14:42:48.763Z,45.03
2022-11-26T14:48:47.247Z,44.94
2022-11-26T14:54:17.423Z,45.20
2022-11-26T15:00:05.953Z,45.38
2022-11-26T15:05:33.291Z,45.09
2022-11-26T15:11:00.937Z,45.08
2022-11-26T15:16:43.117Z,45.12
2022-11-26T15:22:34.335Z,45.46
2022-11-26T15:27:59.244Z,45.22
2022-11-26T15:33:21.575Z,45.13
2022-11-26T15:39:06.557Z,45.84
2022-11-26T15:44:30.061Z,45.40
2022-11-26T15:49:56.188Z,44.70
2022-11-26T15:55:26.510Z,43.92
2022-11-26T16:00:54.182Z,43.80
2022-11-26T16:06:27.090Z,43.55
2022-11-26T16:11:59.973Z,43.47
2022-11-26T16:17:21.847Z,43.16
2022-11-26T16:22:46.619Z,43.07
2022-11-26T16:28:11.050Z,43.27
2022-11-26T16:33:32.787Z,43.37
2022-11-26T16:38:54.568Z,43.47
2022-11-26T16:44:16.318Z,43.27
2022-11-26T16:49:38.013Z,43.54
2022-11-26T16:54:59.755Z,43.77
2022-11-26T17:00:25.001Z,44.51
2022-11-26T17:05:46.698Z,44.47
2022-11-26T17:11:12.186Z,44.46
2022-11-26T17:16:33.854Z,44.87
2022-11-26T17:21:55.666Z,44.54
2022-11-26T17:27:20.189Z,44.34
2022-11-26T17:32:42.025Z,44.55
2022-11-26T17:38:10.645Z,45.29
2022-11-26T17:43:32.505Z,45.05
2022-11-26T17:48:59.999Z,45.46
2022-11-26T17:54:21.928Z,45.46
2022-11-26T17:59:44.321Z,45.37
2022-11-26T18:05:06.299Z,44.78
2022-11-26T18:10:28.040Z,44.56
2022-11-26T18:15:49.760Z,44.59
2022-11-26T18:21:12.391Z,43.64
2022-11-26T18:26:37.718Z,43.60
2022-11-26T18:31:59.419Z,43.43
2022-11-26T18:37:21.112Z,43.14
2022-11-26T18:42:43.146Z,43.64
2022-11-26T18:48:05.023Z,43.75
2022-11-26T18:53:27.578Z,43.57
2022-11-26T18:58:50.472Z,43.97
2022-11-26T19:04:12.948Z,43.95
2022-11-26T19:09:34.725Z,43.94
2022-11-26T19:14:56.417Z,44.17
2022-11-26T19:20:18.158Z,44.50
2022-11-26T19:25:39.803Z,44.79
2022-11-26T19:31:06.692Z,44.59
2022-11-26T19:36:30.027Z,44.57
2022-11-26T19:41:51.893Z,45.06
2022-11-26T19:47:13.570Z,45.09
2022-11-26T19:52:35.241Z,44.67
2022-11-26T19:57:56.949Z,44.29
2022-11-26T20:03:18.802Z,44.15
2022-11-26T20:08:40.699Z,44.07
2022-11-26T20:14:03.567Z,44.09
2022-11-26T20:19:25.241Z,44.07
2022-11-26T20:24:46.881Z,44.18
2022-11-26T20:30:09.399Z,44.08
2022-11-26T20:35:31.094Z,43.95
2022-11-26T20:40:52.741Z,43.94
2022-11-26T20:46:14.953Z,43.70
2022-11-26T20:51:39.610Z,44.18
2022-11-26T20:57:01.522Z,44.09
2022-11-26T21:02:23.257Z,44.36
2022-11-26T21:07:45.015Z,44.75
2022-11-26T21:13:07.783Z,45.07
2022-11-26T21:18:29.730Z,45.08
2022-11-26T21:23:51.597Z,44.95
2022-11-26T21:29:13.397Z,45.25
2022-11-26T21:34:35.088Z,44.88
2022-11-26T21:39:56.891Z,45.48
2022-11-26T21:45:18.876Z,45.74
2022-11-26T21:50:40.652Z,45.44
2022-11-26T21:56:20.595Z,45.07
2022-11-26T22:01:43.086Z,45.14
2022-11-26T22:07:04.940Z,45.47
2022-11-26T22:12:26.938Z,45.39
2022-11-26T22:17:48.556Z,45.08
2022-11-26T22:23:10.265Z,45.01
2022-11-26T22:28:32.004Z,45.33
2022-11-26T22:33:56.027Z,45.12
2022-11-26T22:39:18.814Z,45.10
2022-11-26T22:44:40.497Z,44.75
2022-11-26T22:50:02.141Z,44.75
2022-11-26T22:55:23.881Z,44.83
2022-11-26T23:00:51.053Z,44.81
2022-11-26T23:06:15.383Z,44.57
2022-11-26T23:11:39.776Z,44.90
2022-11-26T23:17:01.418Z,45.00
2022-11-26T23:22:23.083Z,44.97
2022-11-26T23:27:44.945Z,44.79
2022-11-26T23:33:06.722Z,44.91
2022-11-26T23:38:28.794Z,44.70
2022-11-26T23:43:50.490Z,44.87
2022-11-26T23:49:12.881Z,44.56
2022-11-26T23:54:34.913Z,44.92
2022-11-26T23:59:56.716Z,44.53
